sensor_id;sensor_type;location;lat;lon;timestamp;pressure;altitude;pressure_sealevel;temperature;humidity
2875;BME280;1445;52.600;13.328;2023-04-06T00:02:11;101434.69;;;4.72;100.00
2875;BME280;1445;52.600;13.328;2023-04-06T00:04:37;101436.00;;;4.69;100.00
2875;BME280;1445;52.600;13.328;2023-04-06T00:07:02;101434.56;;;4.67;100.00
2875;BME280;1445;52.600;13.328;2023-04-06T00:09:28;101430.34;;;4.59;100.00
2875;BME280;1445;52.600;13.328;2023-04-06T00:11:53;101427.56;;;4.71;100.00
2875;BME280;1445;52.600;13.328;2023-04-06T00:14:18;101431.50;;;4.63;100.00
2875;BME280;1445;52.600;13.328;2023-04-06T00:16:44;101427.38;;;4.61;100.00
2875;BME280;1445;52.600;13.328;2023-04-06T00:19:10;101419.88;;;4.39;100.00
2875;BME280;1445;52.600;13.328;2023-04-06T00:21:35;101420.31;;;4.48;100.00
2875;BME280;1445;52.600;13.328;2023-04-06T00:24:01;101421.06;;;4.31;100.00
2875;BME280;1445;52.600;13.328;2023-04-06T00:26:26;101422.28;;;4.36;100.00
2875;BME280;1445;52.600;13.328;2023-04-06T00:28:51;101419.28;;;4.37;100.00
2875;BME280;1445;52.600;13.328;2023-04-06T00:31:17;101421.19;;;4.37;100.00
2875;BME280;1445;52.600;13.328;2023-04-06T00:33:43;101417.44;;;4.26;100.00
2875;BME280;1445;52.600;13.328;2023-04-06T00:36:08;101423.59;;;4.33;100.00
2875;BME280;1445;52.600;13.328;2023-04-06T00:38:34;101416.06;;;4.40;100.00
2875;BME280;1445;52.600;13.328;2023-04-06T00:40:59;101416.69;;;4.30;100.00
2875;BME280;1445;52.600;13.328;2023-04-06T00:43:25;101422.50;;;4.34;100.00
2875;BME280;1445;52.600;13.328;2023-04-06T00:45:51;101413.88;;;4.25;100.00
2875;BME280;1445;52.600;13.328;2023-04-06T00:48:16;101418.53;;;4.25;100.00
2875;BME280;1445;52.600;13.328;2023-04-06T00:50:42;101414.72;;;4.26;100.00
2875;BME280;1445;52.600;13.328;2023-04-06T00:53:07;101414.78;;;4.31;100.00
2875;BME280;1445;52.600;13.328;2023-04-06T00:55:33;101417.09;;;4.22;100.00
2875;BME280;1445;52.600;13.328;2023-04-06T00:58:01;101409.38;;;4.19;100.00
2875;BME280;1445;52.600;13.328;2023-04-06T01:00:27;101409.78;;;4.11;100.00
2875;BME280;1445;52.600;13.328;2023-04-06T01:02:52;101402.91;;;4.09;100.00
2875;BME280;1445;52.600;13.328;2023-04-06T01:05:18;101413.47;;;4.05;100.00
2875;BME280;1445;52.600;13.328;2023-04-06T01:07:43;101404.47;;;4.04;100.00
2875;BME280;1445;52.600;13.328;2023-04-06T01:10:09;101410.63;;;4.00;100.00
2875;BME280;1445;52.600;13.328;2023-04-06T01:12:35;101401.38;;;4.01;100.00
2875;BME280;1445;52.600;13.328;2023-04-06T01:15:03;101416.59;;;3.97;100.00
2875;BME280;1445;52.600;13.328;2023-04-06T01:17:29;101401.66;;;3.88;100.00
2875;BME280;1445;52.600;13.328;2023-04-06T01:19:54;101413.75;;;3.92;100.00
2875;BME280;1445;52.600;13.328;2023-04-06T01:22:20;101410.78;;;3.81;100.00
2875;BME280;1445;52.600;13.328;2023-04-06T01:24:46;101401.53;;;3.82;100.00
2875;BME280;1445;52.600;13.328;2023-04-06T01:27:12;101404.91;;;3.73;100.00
2875;BME280;1445;52.600;13.328;2023-04-06T01:29:38;101404.06;;;3.72;100.00
2875;BME280;1445;52.600;13.328;2023-04-06T01:32:07;101407.16;;;3.64;100.00
2875;BME280;1445;52.600;13.328;2023-04-06T01:34:33;101405.50;;;3.63;100.00
2875;BME280;1445;52.600;13.328;2023-04-06T01:36:58;101411.16;;;3.73;100.00
2875;BME280;1445;52.600;13.328;2023-04-06T01:39:25;101407.63;;;3.73;100.00
2875;BME280;1445;52.600;13.328;2023-04-06T01:41:51;101405.81;;;3.78;100.00
2875;BME280;1445;52.600;13.328;2023-04-06T01:44:16;101411.03;;;3.80;100.00
2875;BME280;1445;52.600;13.328;2023-04-06T01:46:43;101404.75;;;3.79;100.00
2875;BME280;1445;52.600;13.328;2023-04-06T01:49:08;101409.88;;;3.76;100.00
2875;BME280;1445;52.600;13.328;2023-04-06T01:51:34;101411.75;;;3.75;100.00
2875;BME280;1445;52.600;13.328;2023-04-06T01:53:59;101400.25;;;3.73;100.00
2875;BME280;1445;52.600;13.328;2023-04-06T01:56:25;101399.44;;;3.73;100.00
2875;BME280;1445;52.600;13.328;2023-04-06T01:58:50;101405.94;;;3.72;100.00
2875;BME280;1445;52.600;13.328;2023-04-06T02:01:16;101400.25;;;3.73;100.00
2875;BME280;1445;52.600;13.328;2023-04-06T02:03:42;101406.78;;;3.72;100.00
2875;BME280;1445;52.600;13.328;2023-04-06T02:06:07;101399.09;;;3.69;100.00
2875;BME280;1445;52.600;13.328;2023-04-06T02:08:32;101397.41;;;3.68;100.00
2875;BME280;1445;52.600;13.328;2023-04-06T02:10:58;101402.03;;;3.68;100.00
2875;BME280;1445;52.600;13.328;2023-04-06T02:13:23;101403.94;;;3.67;100.00
2875;BME280;1445;52.600;13.328;2023-04-06T02:15:50;101403.25;;;3.60;100.00
2875;BME280;1445;52.600;13.328;2023-04-06T02:18:16;101396.34;;;3.57;100.00
2875;BME280;1445;52.600;13.328;2023-04-06T02:20:43;101403.72;;;3.57;100.00
2875;BME280;1445;52.600;13.328;2023-04-06T02:23:09;101408.25;;;3.51;100.00
2875;BME280;1445;52.600;13.328;2023-04-06T02:25:35;101402.44;;;3.48;100.00
2875;BME280;1445;52.600;13.328;2023-04-06T02:28:00;101404.56;;;3.46;100.00
2875;BME280;1445;52.600;13.328;2023-04-06T02:30:26;101398.75;;;3.42;100.00
2875;BME280;1445;52.600;13.328;2023-04-06T02:32:51;101401.13;;;3.39;100.00
2875;BME280;1445;52.600;13.328;2023-04-06T02:35:17;101397.22;;;3.34;100.00
2875;BME280;1445;52.600;13.328;2023-04-06T02:37:43;101402.06;;;3.32;100.00
2875;BME280;1445;52.600;13.328;2023-04-06T02:40:09;101403.88;;;3.27;100.00
2875;BME280;1445;52.600;13.328;2023-04-06T02:42:34;101401.59;;;3.24;100.00
2875;BME280;1445;52.600;13.328;2023-04-06T02:45:00;101397.22;;;3.23;100.00
2875;BME280;1445;52.600;13.328;2023-04-06T02:47:25;101399.56;;;3.19;100.00
2875;BME280;1445;52.600;13.328;2023-04-06T02:49:51;101403.00;;;3.15;100.00
2875;BME280;1445;52.600;13.328;2023-04-06T02:52:16;101403.25;;;3.13;100.00
2875;BME280;1445;52.600;13.328;2023-04-06T02:54:43;101401.84;;;3.10;100.00
2875;BME280;1445;52.600;13.328;2023-04-06T02:57:09;101401.47;;;3.07;100.00
2875;BME280;1445;52.600;13.328;2023-04-06T02:59:34;101405.28;;;3.06;100.00
2875;BME280;1445;52.600;13.328;2023-04-06T03:02:00;101404.81;;;3.09;100.00
2875;BME280;1445;52.600;13.328;2023-04-06T03:04:25;101407.75;;;3.07;100.00
2875;BME280;1445;52.600;13.328;2023-04-06T03:06:51;101411.53;;;3.06;100.00
2875;BME280;1445;52.600;13.328;2023-04-06T03:09:16;101413.19;;;3.07;100.00
2875;BME280;1445;52.600;13.328;2023-04-06T03:11:42;101408.56;;;3.08;100.00
2875;BME280;1445;52.600;13.328;2023-04-06T03:14:07;101407.38;;;3.04;100.00
2875;BME280;1445;52.600;13.328;2023-04-06T03:16:33;101411.19;;;3.03;100.00
2875;BME280;1445;52.600;13.328;2023-04-06T03:18:58;101414.94;;;3.02;100.00
2875;BME280;1445;52.600;13.328;2023-04-06T03:21:24;101415.44;;;2.99;100.00
2875;BME280;1445;52.600;13.328;2023-04-06T03:23:49;101413.19;;;2.96;100.00
2875;BME280;1445;52.600;13.328;2023-04-06T03:26:16;101413.88;;;2.91;100.00
2875;BME280;1445;52.600;13.328;2023-04-06T03:28:41;101415.41;;;2.87;100.00
2875;BME280;1445;52.600;13.328;2023-04-06T03:31:07;101422.19;;;2.84;100.00
2875;BME280;1445;52.600;13.328;2023-04-06T03:33:32;101427.63;;;2.84;100.00
2875;BME280;1445;52.600;13.328;2023-04-06T03:35:58;101432.56;;;2.87;100.00
2875;BME280;1445;52.600;13.328;2023-04-06T03:38:23;101420.28;;;2.85;100.00
2875;BME280;1445;52.600;13.328;2023-04-06T03:40:49;101417.78;;;2.83;100.00
2875;BME280;1445;52.600;13.328;2023-04-06T03:43:14;101427.00;;;2.82;100.00
2875;BME280;1445;52.600;13.328;2023-04-06T03:45:40;101427.72;;;2.78;100.00
2875;BME280;1445;52.600;13.328;2023-04-06T03:48:05;101438.16;;;2.81;100.00
2875;BME280;1445;52.600;13.328;2023-04-06T03:50:31;101435.06;;;2.77;100.00
2875;BME280;1445;52.600;13.328;2023-04-06T03:52:56;101433.25;;;2.71;100.00
2875;BME280;1445;52.600;13.328;2023-04-06T03:55:22;101442.00;;;2.73;100.00
2875;BME280;1445;52.600;13.328;2023-04-06T03:57:47;101440.81;;;2.69;100.00
2875;BME280;1445;52.600;13.328;2023-04-06T04:00:13;101440.44;;;2.66;100.00
2875;BME280;1445;52.600;13.328;2023-04-06T04:02:39;101441.72;;;2.63;100.00
2875;BME280;1445;52.600;13.328;2023-04-06T04:05:05;101446.59;;;2.61;100.00
2875;BME280;1445;52.600;13.328;2023-04-06T04:07:30;101450.84;;;2.57;100.00
2875;BME280;1445;52.600;13.328;2023-04-06T04:09:56;101446.69;;;2.54;100.00
2875;BME280;1445;52.600;13.328;2023-04-06T04:12:22;101453.22;;;2.53;100.00
2875;BME280;1445;52.600;13.328;2023-04-06T04:14:47;101450.69;;;2.52;100.00
2875;BME280;1445;52.600;13.328;2023-04-06T04:17:13;101450.56;;;2.47;100.00
2875;BME280;1445;52.600;13.328;2023-04-06T04:19:38;101454.34;;;2.46;100.00
2875;BME280;1445;52.600;13.328;2023-04-06T04:22:04;101448.75;;;2.41;100.00
2875;BME280;1445;52.600;13.328;2023-04-06T04:24:32;101450.19;;;2.43;100.00
2875;BME280;1445;52.600;13.328;2023-04-06T04:26:59;101453.13;;;2.42;100.00
2875;BME280;1445;52.600;13.328;2023-04-06T04:29:26;101450.66;;;2.40;100.00
2875;BME280;1445;52.600;13.328;2023-04-06T04:31:51;101455.72;;;2.36;100.00
2875;BME280;1445;52.600;13.328;2023-04-06T04:34:17;101451.94;;;2.37;100.00
2875;BME280;1445;52.600;13.328;2023-04-06T04:36:45;101455.28;;;2.39;100.00
2875;BME280;1445;52.600;13.328;2023-04-06T04:39:10;101450.03;;;2.38;100.00
2875;BME280;1445;52.600;13.328;2023-04-06T04:41:36;101458.91;;;2.33;100.00
2875;BME280;1445;52.600;13.328;2023-04-06T04:44:01;101456.09;;;2.40;100.00
2875;BME280;1445;52.600;13.328;2023-04-06T04:46:27;101458.19;;;2.38;100.00
2875;BME280;1445;52.600;13.328;2023-04-06T04:48:52;101450.75;;;2.33;100.00
2875;BME280;1445;52.600;13.328;2023-04-06T04:51:18;101461.63;;;2.33;100.00
2875;BME280;1445;52.600;13.328;2023-04-06T04:53:45;101453.84;;;2.37;100.00
2875;BME280;1445;52.600;13.328;2023-04-06T04:56:10;101458.66;;;2.35;100.00
2875;BME280;1445;52.600;13.328;2023-04-06T04:58:36;101463.88;;;2.36;100.00
2875;BME280;1445;52.600;13.328;2023-04-06T05:01:01;101466.59;;;2.36;100.00
2875;BME280;1445;52.600;13.328;2023-04-06T05:03:32;101467.19;;;2.38;100.00
2875;BME280;1445;52.600;13.328;2023-04-06T05:05:58;101469.25;;;2.43;100.00
2875;BME280;1445;52.600;13.328;2023-04-06T05:08:23;101464.19;;;2.47;100.00
2875;BME280;1445;52.600;13.328;2023-04-06T05:10:49;101469.75;;;2.52;100.00
2875;BME280;1445;52.600;13.328;2023-04-06T05:13:14;101467.38;;;2.55;100.00
2875;BME280;1445;52.600;13.328;2023-04-06T05:15:40;101471.09;;;2.61;100.00
2875;BME280;1445;52.600;13.328;2023-04-06T05:18:07;101477.97;;;2.63;100.00
2875;BME280;1445;52.600;13.328;2023-04-06T05:20:34;101476.66;;;2.66;100.00
2875;BME280;1445;52.600;13.328;2023-04-06T05:23:00;101472.03;;;2.67;100.00
2875;BME280;1445;52.600;13.328;2023-04-06T05:25:25;101471.84;;;2.68;100.00
2875;BME280;1445;52.600;13.328;2023-04-06T05:27:51;101468.19;;;2.74;100.00
2875;BME280;1445;52.600;13.328;2023-04-06T05:30:16;101470.66;;;2.76;100.00
2875;BME280;1445;52.600;13.328;2023-04-06T05:32:42;101478.13;;;2.80;100.00
2875;BME280;1445;52.600;13.328;2023-04-06T05:35:09;101478.41;;;2.91;100.00
2875;BME280;1445;52.600;13.328;2023-04-06T05:37:35;101481.03;;;2.97;100.00
2875;BME280;1445;52.600;13.328;2023-04-06T05:40:00;101483.66;;;3.04;100.00
2875;BME280;1445;52.600;13.328;2023-04-06T05:42:26;101479.41;;;3.08;100.00
2875;BME280;1445;52.600;13.328;2023-04-06T05:44:52;101481.66;;;3.11;100.00
2875;BME280;1445;52.600;13.328;2023-04-06T05:47:17;101477.28;;;3.22;100.00
2875;BME280;1445;52.600;13.328;2023-04-06T05:49:43;101488.19;;;3.22;100.00
2875;BME280;1445;52.600;13.328;2023-04-06T05:52:08;101480.53;;;3.30;100.00
2875;BME280;1445;52.600;13.328;2023-04-06T05:54:36;101477.19;;;3.40;100.00
2875;BME280;1445;52.600;13.328;2023-04-06T05:57:02;101474.81;;;3.44;100.00
2875;BME280;1445;52.600;13.328;2023-04-06T05:59:29;101479.13;;;3.51;100.00
2875;BME280;1445;52.600;13.328;2023-04-06T06:01:55;101474.84;;;3.55;100.00
2875;BME280;1445;52.600;13.328;2023-04-06T06:04:20;101475.31;;;3.64;100.00
2875;BME280;1445;52.600;13.328;2023-04-06T06:06:46;101480.53;;;3.77;100.00
2875;BME280;1445;52.600;13.328;2023-04-06T06:09:11;101481.22;;;3.85;100.00
2875;BME280;1445;52.600;13.328;2023-04-06T06:11:36;101483.47;;;3.88;100.00
2875;BME280;1445;52.600;13.328;2023-04-06T06:14:02;101482.75;;;4.04;100.00
2875;BME280;1445;52.600;13.328;2023-04-06T06:16:27;101477.41;;;4.09;100.00
2875;BME280;1445;52.600;13.328;2023-04-06T06:18:53;101472.50;;;4.23;100.00
2875;BME280;1445;52.600;13.328;2023-04-06T06:21:18;101483.03;;;4.31;100.00
2875;BME280;1445;52.600;13.328;2023-04-06T06:23:44;101482.31;;;4.36;100.00
2875;BME280;1445;52.600;13.328;2023-04-06T06:26:09;101482.53;;;4.46;100.00
2875;BME280;1445;52.600;13.328;2023-04-06T06:28:35;101487.13;;;4.57;100.00
2875;BME280;1445;52.600;13.328;2023-04-06T06:31:00;101475.06;;;4.70;100.00
2875;BME280;1445;52.600;13.328;2023-04-06T06:33:26;101484.78;;;4.77;100.00
2875;BME280;1445;52.600;13.328;2023-04-06T06:35:54;101480.00;;;4.85;100.00
2875;BME280;1445;52.600;13.328;2023-04-06T06:38:20;101481.22;;;4.94;100.00
2875;BME280;1445;52.600;13.328;2023-04-06T06:40:46;101482.72;;;5.01;100.00
2875;BME280;1445;52.600;13.328;2023-04-06T06:43:11;101482.00;;;5.06;100.00
2875;BME280;1445;52.600;13.328;2023-04-06T06:45:37;101488.03;;;5.08;100.00
2875;BME280;1445;52.600;13.328;2023-04-06T06:48:02;101480.78;;;5.14;100.00
2875;BME280;1445;52.600;13.328;2023-04-06T06:50:28;101478.59;;;5.16;100.00
2875;BME280;1445;52.600;13.328;2023-04-06T06:52:53;101485.09;;;5.26;100.00
2875;BME280;1445;52.600;13.328;2023-04-06T06:55:19;101483.34;;;5.37;100.00
2875;BME280;1445;52.600;13.328;2023-04-06T06:57:44;101480.53;;;5.49;100.00
2875;BME280;1445;52.600;13.328;2023-04-06T07:00:12;101487.16;;;5.53;100.00
2875;BME280;1445;52.600;13.328;2023-04-06T07:02:39;101482.09;;;5.45;100.00
2875;BME280;1445;52.600;13.328;2023-04-06T07:05:05;101484.56;;;5.63;100.00
2875;BME280;1445;52.600;13.328;2023-04-06T07:07:34;101484.72;;;5.73;100.00
2875;BME280;1445;52.600;13.328;2023-04-06T07:10:00;101484.06;;;5.83;100.00
2875;BME280;1445;52.600;13.328;2023-04-06T07:12:26;101479.31;;;5.95;100.00
2875;BME280;1445;52.600;13.328;2023-04-06T07:14:51;101485.84;;;6.11;100.00
2875;BME280;1445;52.600;13.328;2023-04-06T07:17:17;101480.22;;;6.23;100.00
2875;BME280;1445;52.600;13.328;2023-04-06T07:19:42;101478.97;;;6.31;100.00
2875;BME280;1445;52.600;13.328;2023-04-06T07:22:08;101474.75;;;6.45;100.00
2875;BME280;1445;52.600;13.328;2023-04-06T07:24:33;101480.97;;;6.62;100.00
2875;BME280;1445;52.600;13.328;2023-04-06T07:27:08;101478.34;;;6.73;100.00
2875;BME280;1445;52.600;13.328;2023-04-06T07:29:33;101477.34;;;6.84;100.00
2875;BME280;1445;52.600;13.328;2023-04-06T07:31:59;101473.00;;;6.88;100.00
2875;BME280;1445;52.600;13.328;2023-04-06T07:34:24;101477.00;;;7.02;100.00
2875;BME280;1445;52.600;13.328;2023-04-06T07:36:50;101485.84;;;7.09;100.00
2875;BME280;1445;52.600;13.328;2023-04-06T07:39:17;101477.97;;;7.18;100.00
2875;BME280;1445;52.600;13.328;2023-04-06T07:41:43;101480.97;;;7.16;100.00
2875;BME280;1445;52.600;13.328;2023-04-06T07:44:08;101476.94;;;7.24;100.00
2875;BME280;1445;52.600;13.328;2023-04-06T07:46:34;101478.53;;;7.20;100.00
2875;BME280;1445;52.600;13.328;2023-04-06T07:49:01;101482.09;;;7.21;100.00
2875;BME280;1445;52.600;13.328;2023-04-06T07:51:27;101482.66;;;7.23;100.00
2875;BME280;1445;52.600;13.328;2023-04-06T07:53:52;101474.09;;;7.14;100.00
2875;BME280;1445;52.600;13.328;2023-04-06T07:56:18;101478.84;;;7.24;100.00
2875;BME280;1445;52.600;13.328;2023-04-06T07:58:43;101477.63;;;7.41;100.00
2875;BME280;1445;52.600;13.328;2023-04-06T08:01:09;101479.56;;;7.46;100.00
2875;BME280;1445;52.600;13.328;2023-04-06T08:03:35;101473.06;;;7.57;100.00
2875;BME280;1445;52.600;13.328;2023-04-06T08:06:01;101483.50;;;7.60;99.50
2875;BME280;1445;52.600;13.328;2023-04-06T08:08:28;101483.72;;;7.54;98.03
2875;BME280;1445;52.600;13.328;2023-04-06T08:10:53;101481.56;;;7.56;97.43
2875;BME280;1445;52.600;13.328;2023-04-06T08:13:19;101489.00;;;7.60;97.04
2875;BME280;1445;52.600;13.328;2023-04-06T08:15:44;101477.47;;;7.58;95.88
2875;BME280;1445;52.600;13.328;2023-04-06T08:18:10;101476.91;;;7.61;98.93
2875;BME280;1445;52.600;13.328;2023-04-06T08:20:36;101474.22;;;7.67;95.88
2875;BME280;1445;52.600;13.328;2023-04-06T08:23:01;101481.41;;;7.73;99.39
2875;BME280;1445;52.600;13.328;2023-04-06T08:25:27;101480.91;;;7.86;100.00
2875;BME280;1445;52.600;13.328;2023-04-06T08:27:52;101481.66;;;8.19;97.31
2875;BME280;1445;52.600;13.328;2023-04-06T08:30:18;101470.94;;;8.17;89.47
2875;BME280;1445;52.600;13.328;2023-04-06T08:32:45;101481.72;;;8.29;82.97
2875;BME280;1445;52.600;13.328;2023-04-06T08:35:11;101482.88;;;8.38;87.68
2875;BME280;1445;52.600;13.328;2023-04-06T08:37:37;101478.22;;;8.44;84.84
2875;BME280;1445;52.600;13.328;2023-04-06T08:40:03;101486.47;;;8.49;81.72
2875;BME280;1445;52.600;13.328;2023-04-06T08:42:32;101487.28;;;8.39;80.02
2875;BME280;1445;52.600;13.328;2023-04-06T08:44:57;101490.50;;;8.31;80.59
2875;BME280;1445;52.600;13.328;2023-04-06T08:47:24;101486.22;;;8.50;81.69
2875;BME280;1445;52.600;13.328;2023-04-06T08:49:50;101483.47;;;8.50;77.18
2875;BME280;1445;52.600;13.328;2023-04-06T08:52:18;101490.13;;;8.70;80.53
2875;BME280;1445;52.600;13.328;2023-04-06T08:54:44;101478.03;;;8.60;80.58
2875;BME280;1445;52.600;13.328;2023-04-06T08:57:09;101487.41;;;8.80;78.70
2875;BME280;1445;52.600;13.328;2023-04-06T08:59:36;101480.28;;;8.94;79.57
2875;BME280;1445;52.600;13.328;2023-04-06T09:02:03;101476.19;;;9.17;80.92
2875;BME280;1445;52.600;13.328;2023-04-06T09:04:31;101478.66;;;9.24;71.82
2875;BME280;1445;52.600;13.328;2023-04-06T09:06:57;101489.41;;;9.41;69.08
2875;BME280;1445;52.600;13.328;2023-04-06T09:09:23;101485.81;;;9.40;62.61
2875;BME280;1445;52.600;13.328;2023-04-06T09:11:51;101499.56;;;9.40;58.53
2875;BME280;1445;52.600;13.328;2023-04-06T09:14:33;101475.88;;;8.88;59.55
2875;BME280;1445;52.600;13.328;2023-04-06T09:16:58;101475.66;;;9.20;61.25
2875;BME280;1445;52.600;13.328;2023-04-06T09:19:24;101476.47;;;9.51;60.93
2875;BME280;1445;52.600;13.328;2023-04-06T09:21:49;101480.28;;;9.81;59.14
2875;BME280;1445;52.600;13.328;2023-04-06T09:24:15;101467.63;;;9.80;56.60
2875;BME280;1445;52.600;13.328;2023-04-06T09:26:46;101473.44;;;9.32;55.09
2875;BME280;1445;52.600;13.328;2023-04-06T09:29:22;101476.41;;;9.72;53.67
2875;BME280;1445;52.600;13.328;2023-04-06T09:31:48;101469.28;;;9.40;55.80
2875;BME280;1445;52.600;13.328;2023-04-06T09:34:22;101471.13;;;9.96;53.29
2875;BME280;1445;52.600;13.328;2023-04-06T09:36:48;101471.31;;;10.35;51.73
2875;BME280;1445;52.600;13.328;2023-04-06T09:39:14;101463.44;;;9.98;49.53
2875;BME280;1445;52.600;13.328;2023-04-06T09:41:40;101465.28;;;10.23;52.82
2875;BME280;1445;52.600;13.328;2023-04-06T09:44:10;101473.44;;;10.54;46.89
2875;BME280;1445;52.600;13.328;2023-04-06T09:46:41;101469.69;;;10.29;45.58
2875;BME280;1445;52.600;13.328;2023-04-06T09:49:07;101454.09;;;11.03;44.64
2875;BME280;1445;52.600;13.328;2023-04-06T09:51:41;101449.19;;;11.29;43.11
2875;BME280;1445;52.600;13.328;2023-04-06T09:54:07;101452.91;;;11.49;42.55
2875;BME280;1445;52.600;13.328;2023-04-06T09:56:47;101450.78;;;11.64;41.84
2875;BME280;1445;52.600;13.328;2023-04-06T10:01:55;101458.22;;;11.69;41.92
2875;BME280;1445;52.600;13.328;2023-04-06T10:04:32;101442.44;;;10.72;39.13
2875;BME280;1445;52.600;13.328;2023-04-06T10:07:02;101453.00;;;10.60;41.11
2875;BME280;1445;52.600;13.328;2023-04-06T10:09:28;101442.28;;;9.73;39.70
2875;BME280;1445;52.600;13.328;2023-04-06T10:12:02;101434.97;;;10.18;39.68
2875;BME280;1445;52.600;13.328;2023-04-06T10:14:28;101433.94;;;10.63;38.39
2875;BME280;1445;52.600;13.328;2023-04-06T10:16:53;101433.06;;;10.73;36.61
2875;BME280;1445;52.600;13.328;2023-04-06T10:19:25;101437.09;;;11.25;38.26
2875;BME280;1445;52.600;13.328;2023-04-06T10:21:54;101452.50;;;11.31;37.36
2875;BME280;1445;52.600;13.328;2023-04-06T10:24:20;101436.53;;;11.81;37.40
2875;BME280;1445;52.600;13.328;2023-04-06T10:27:01;101431.63;;;12.45;37.85
2875;BME280;1445;52.600;13.328;2023-04-06T10:29:27;101421.91;;;13.04;35.52
2875;BME280;1445;52.600;13.328;2023-04-06T10:31:52;101438.31;;;13.66;34.15
2875;BME280;1445;52.600;13.328;2023-04-06T10:34:18;101423.81;;;13.23;33.42
2875;BME280;1445;52.600;13.328;2023-04-06T10:36:43;101424.91;;;13.41;32.63
2875;BME280;1445;52.600;13.328;2023-04-06T10:39:11;101432.97;;;13.56;33.09
2875;BME280;1445;52.600;13.328;2023-04-06T10:41:45;101438.44;;;13.28;30.38
2875;BME280;1445;52.600;13.328;2023-04-06T10:44:25;101436.13;;;13.17;29.84
2875;BME280;1445;52.600;13.328;2023-04-06T10:46:58;101425.41;;;13.29;31.31
2875;BME280;1445;52.600;13.328;2023-04-06T10:49:26;101428.63;;;12.98;31.16
2875;BME280;1445;52.600;13.328;2023-04-06T10:51:55;101421.72;;;13.80;31.57
2875;BME280;1445;52.600;13.328;2023-04-06T10:54:24;101432.78;;;12.44;28.36
2875;BME280;1445;52.600;13.328;2023-04-06T10:56:49;101418.41;;;11.99;31.16
2875;BME280;1445;52.600;13.328;2023-04-06T10:59:22;101418.78;;;12.92;30.11
2875;BME280;1445;52.600;13.328;2023-04-06T11:01:48;101416.66;;;13.68;29.80
2875;BME280;1445;52.600;13.328;2023-04-06T11:04:17;101413.03;;;13.40;29.47
2875;BME280;1445;52.600;13.328;2023-04-06T11:06:49;101413.28;;;12.54;30.15
2875;BME280;1445;52.600;13.328;2023-04-06T11:09:28;101407.81;;;12.68;29.59
2875;BME280;1445;52.600;13.328;2023-04-06T11:11:55;101407.72;;;12.73;29.58
2875;BME280;1445;52.600;13.328;2023-04-06T11:14:22;101400.97;;;12.98;28.80
2875;BME280;1445;52.600;13.328;2023-04-06T11:16:48;101405.34;;;12.85;29.44
2875;BME280;1445;52.600;13.328;2023-04-06T11:19:15;101394.72;;;13.25;28.93
2875;BME280;1445;52.600;13.328;2023-04-06T11:24:18;101398.63;;;13.24;28.92
2875;BME280;1445;52.600;13.328;2023-04-06T11:29:36;101387.34;;;14.59;28.67
2875;BME280;1445;52.600;13.328;2023-04-06T11:32:04;101383.25;;;14.56;27.85
2875;BME280;1445;52.600;13.328;2023-04-06T11:34:33;101381.13;;;14.75;28.15
2875;BME280;1445;52.600;13.328;2023-04-06T11:37:01;101376.09;;;15.00;27.53
2875;BME280;1445;52.600;13.328;2023-04-06T11:39:28;101381.59;;;15.76;27.58
2875;BME280;1445;52.600;13.328;2023-04-06T11:41:57;101371.44;;;16.46;26.68
2875;BME280;1445;52.600;13.328;2023-04-06T11:44:32;101372.81;;;17.56;27.30
2875;BME280;1445;52.600;13.328;2023-04-06T11:46:58;101369.56;;;18.43;24.84
2875;BME280;1445;52.600;13.328;2023-04-06T11:49:30;101369.13;;;17.73;24.46
2875;BME280;1445;52.600;13.328;2023-04-06T11:51:57;101386.69;;;17.09;24.46
2875;BME280;1445;52.600;13.328;2023-04-06T11:56:56;101380.97;;;14.58;27.85
2875;BME280;1445;52.600;13.328;2023-04-06T11:59:22;101364.44;;;13.75;28.24
2875;BME280;1445;52.600;13.328;2023-04-06T12:01:48;101372.34;;;14.46;28.69
2875;BME280;1445;52.600;13.328;2023-04-06T12:04:13;101365.97;;;14.09;28.75
2875;BME280;1445;52.600;13.328;2023-04-06T12:06:39;101361.19;;;14.96;27.57
2875;BME280;1445;52.600;13.328;2023-04-06T12:09:05;101349.41;;;15.84;26.60
2875;BME280;1445;52.600;13.328;2023-04-06T12:11:30;101345.16;;;15.86;26.44
2875;BME280;1445;52.600;13.328;2023-04-06T12:13:56;101363.91;;;15.72;26.34
2875;BME280;1445;52.600;13.328;2023-04-06T12:16:21;101352.72;;;15.94;26.99
2875;BME280;1445;52.600;13.328;2023-04-06T12:18:46;101359.38;;;15.93;26.87
2875;BME280;1445;52.600;13.328;2023-04-06T12:21:12;101355.03;;;16.10;25.90
2875;BME280;1445;52.600;13.328;2023-04-06T12:23:37;101351.94;;;16.11;26.29
2875;BME280;1445;52.600;13.328;2023-04-06T12:26:03;101347.06;;;16.52;26.89
2875;BME280;1445;52.600;13.328;2023-04-06T12:28:28;101356.59;;;15.93;26.65
2875;BME280;1445;52.600;13.328;2023-04-06T12:30:55;101340.84;;;16.81;26.08
2875;BME280;1445;52.600;13.328;2023-04-06T12:33:20;101341.97;;;16.97;26.10
2875;BME280;1445;52.600;13.328;2023-04-06T12:35:46;101347.13;;;18.10;25.14
2875;BME280;1445;52.600;13.328;2023-04-06T12:38:11;101344.84;;;18.54;23.55
2875;BME280;1445;52.600;13.328;2023-04-06T12:40:38;101344.78;;;16.80;25.14
2875;BME280;1445;52.600;13.328;2023-04-06T12:43:03;101341.78;;;17.58;25.21
2875;BME280;1445;52.600;13.328;2023-04-06T12:45:30;101345.06;;;17.98;25.05
2875;BME280;1445;52.600;13.328;2023-04-06T12:47:56;101330.59;;;18.89;24.67
2875;BME280;1445;52.600;13.328;2023-04-06T12:50:21;101322.59;;;20.59;23.25
2875;BME280;1445;52.600;13.328;2023-04-06T12:52:47;101315.19;;;21.38;21.86
2875;BME280;1445;52.600;13.328;2023-04-06T12:55:12;101315.94;;;21.07;22.28
2875;BME280;1445;52.600;13.328;2023-04-06T12:57:38;101309.50;;;21.35;22.23
2875;BME280;1445;52.600;13.328;2023-04-06T13:00:04;101312.81;;;20.81;22.47
2875;BME280;1445;52.600;13.328;2023-04-06T13:02:30;101315.28;;;21.74;22.24
2875;BME280;1445;52.600;13.328;2023-04-06T13:04:56;101300.63;;;22.74;21.78
2875;BME280;1445;52.600;13.328;2023-04-06T13:07:22;101300.09;;;22.87;21.12
2875;BME280;1445;52.600;13.328;2023-04-06T13:09:47;101286.34;;;23.71;19.66